Time;durP1;ratioP1;P1;durP2;ratioP2;P2;SDS_P1;SDS_P2;PMS_P1;PMS_P2;Temp;Humidity;BMP_temperature;BMP_pressure;BME280_temperature;BME280_humidity;BME280_pressure;Samples;Min_cycle;Max_cycle;Signal;HPM_P1;HPM_P2
2022/05/17 00:01:54;;;;;;;2.90;1.20;;;;;;;11.39;49.89;100281.88;1768712;79;20940;-69
2022/05/17 00:04:21;;;;;;;2.65;1.17;;;;;;;11.28;50.15;100285.88;1779307;79;21052;-69
2022/05/17 00:06:48;;;;;;;2.90;1.20;;;;;;;11.16;50.40;100287.75;1775851;79;21008;-69
2022/05/17 00:09:17;;;;;;;4.55;1.40;;;;;;;11.03;50.85;100291.55;1766741;80;21549;-69
2022/05/17 00:11:47;;;;;;;3.62;1.15;;;;;;;10.90;50.63;100289.06;1766501;79;21946;-71
2022/05/17 00:14:14;;;;;;;4.35;1.22;;;;;;;10.80;50.93;100282.85;1769655;79;21403;-69
2022/05/17 00:16:42;;;;;;;4.75;1.20;;;;;;;10.69;50.77;100283.73;1746022;79;21012;-69
2022/05/17 00:19:10;;;;;;;3.45;1.00;;;;;;;10.58;51.07;100280.64;1796409;79;20977;-69
2022/05/17 00:21:39;;;;;;;4.00;1.27;;;;;;;10.51;51.19;100281.25;1778856;79;21515;-69
2022/05/17 00:24:08;;;;;;;5.62;1.20;;;;;;;10.42;51.58;100280.67;1770222;79;21789;-69
2022/05/17 00:26:36;;;;;;;4.72;1.25;;;;;;;10.30;51.48;100282.02;1775130;78;20936;-69
2022/05/17 00:29:04;;;;;;;3.98;1.30;;;;;;;10.21;51.41;100272.16;1776475;79;22334;-69
2022/05/17 00:31:31;;;;;;;4.22;1.40;;;;;;;10.11;51.87;100283.08;1789604;79;21055;-69
2022/05/17 00:33:59;;;;;;;2.67;1.00;;;;;;;10.00;52.23;100276.02;1775105;78;21003;-70
2022/05/17 00:36:25;;;;;;;3.50;1.40;;;;;;;9.90;52.29;100282.97;1745549;79;22540;-69
2022/05/17 00:38:52;;;;;;;3.50;1.35;;;;;;;9.79;52.47;100281.66;1792239;79;20899;-69
2022/05/17 00:41:19;;;;;;;6.80;1.30;;;;;;;9.72;52.58;100282.59;1801427;79;21059;-68
2022/05/17 00:46:56;;;;;;;2.95;1.32;;;;;;;9.57;52.69;100278.52;1786477;79;20931;-69
2022/05/17 00:49:28;;;;;;;3.08;1.30;;;;;;;9.50;52.50;100275.98;1790585;79;21906;-69
2022/05/17 00:51:59;;;;;;;4.92;1.30;;;;;;;9.42;52.39;100268.66;1812919;79;20968;-69
2022/05/17 00:54:26;;;;;;;5.92;1.52;;;;;;;9.35;52.34;100268.75;1796258;77;20955;-68
2022/05/17 00:57:16;;;;;;;6.75;1.62;;;;;;;9.28;52.62;100264.92;1805341;79;20968;-69
2022/05/17 00:59:43;;;;;;;3.67;1.20;;;;;;;9.22;52.71;100264.06;1728498;79;20976;-68
2022/05/17 01:02:11;;;;;;;2.35;1.30;;;;;;;9.14;52.81;100257.20;1786795;79;21791;-68
2022/05/17 01:04:38;;;;;;;3.27;1.27;;;;;;;9.09;52.97;100265.47;1769492;79;21447;-70
2022/05/17 01:07:20;;;;;;;4.50;1.65;;;;;;;9.03;53.15;100261.96;1809590;79;20942;-68
2022/05/17 01:09:47;;;;;;;7.22;1.70;;;;;;;8.99;53.15;100250.47;1769892;78;21016;-69
2022/05/17 01:12:14;;;;;;;4.00;2.08;;;;;;;8.92;53.30;100252.70;1766890;79;20937;-69
2022/05/17 01:15:00;;;;;;;5.12;1.70;;;;;;;8.87;53.31;100246.45;1786522;77;21836;-68
2022/05/17 01:17:29;;;;;;;5.87;1.67;;;;;;;8.85;53.70;100244.89;1811467;79;20929;-68
2022/05/17 01:19:56;;;;;;;4.92;1.98;;;;;;;8.79;54.12;100244.05;1767685;79;21365;-69
2022/05/17 01:22:23;;;;;;;3.77;1.70;;;;;;;8.75;54.51;100251.80;1790355;79;20996;-69
2022/05/17 01:24:50;;;;;;;4.50;1.60;;;;;;;8.69;54.79;100240.41;1789073;79;21559;-69
2022/05/17 01:27:30;;;;;;;4.83;2.08;;;;;;;8.61;55.15;100239.66;1773880;80;22230;-69
2022/05/17 01:29:58;;;;;;;5.62;2.30;;;;;;;8.54;55.23;100239.25;1771983;79;20948;-68
2022/05/17 01:32:25;;;;;;;5.33;2.00;;;;;;;8.49;55.39;100236.58;1786240;77;20945;-73
2022/05/17 01:34:52;;;;;;;5.15;2.17;;;;;;;8.45;55.80;100238.61;1773639;79;21500;-69
2022/05/17 01:37:19;;;;;;;6.70;1.90;;;;;;;8.42;56.03;100239.31;1754931;79;21095;-69
2022/05/17 01:39:46;;;;;;;4.58;2.12;;;;;;;8.38;56.00;100240.47;1786801;77;21813;-69
2022/05/17 01:42:14;;;;;;;6.25;2.05;;;;;;;8.37;55.94;100233.05;1806471;77;20908;-69
2022/05/17 01:44:43;;;;;;;4.70;2.00;;;;;;;8.36;55.86;100241.91;1796667;79;20992;-70
2022/05/17 01:47:11;;;;;;;4.33;1.87;;;;;;;8.35;55.78;100234.96;1781521;77;21159;-72
2022/05/17 01:49:39;;;;;;;3.95;1.95;;;;;;;8.32;55.73;100221.53;1761889;80;20974;-68
2022/05/17 01:52:08;;;;;;;3.90;1.80;;;;;;;8.32;55.56;100232.53;1763684;80;22573;-68
2022/05/17 01:54:35;;;;;;;7.90;2.50;;;;;;;8.30;55.42;100230.02;1798672;79;20913;-68
2022/05/17 01:57:03;;;;;;;5.03;2.20;;;;;;;8.31;55.51;100231.69;1795794;79;20997;-70
2022/05/17 01:59:29;;;;;;;7.60;2.02;;;;;;;8.27;55.84;100229.38;1784352;80;21539;-70
2022/05/17 02:01:57;;;;;;;4.53;1.87;;;;;;;8.21;55.92;100230.67;1773432;79;21028;-71
2022/05/17 02:04:26;;;;;;;4.83;1.98;;;;;;;8.15;55.88;100227.63;1765564;80;22623;-68
2022/05/17 02:06:55;;;;;;;7.15;2.12;;;;;;;8.12;55.88;100229.17;1788687;79;21027;-70
2022/05/17 02:09:22;;;;;;;7.08;2.00;;;;;;;8.06;56.14;100232.23;1796610;79;21419;-69
2022/05/17 02:11:49;;;;;;;5.95;2.30;;;;;;;7.99;56.37;100233.14;1791029;80;21054;-74
2022/05/17 02:14:17;;;;;;;5.15;2.12;;;;;;;7.97;56.32;100235.88;1778855;79;21040;-69
2022/05/17 02:16:45;;;;;;;5.22;2.20;;;;;;;7.95;56.25;100237.78;1759124;80;21864;-68
2022/05/17 02:19:13;;;;;;;5.97;1.92;;;;;;;7.91;56.21;100228.89;1793028;80;21434;-69
2022/05/17 02:21:40;;;;;;;6.95;2.17;;;;;;;7.89;56.27;100223.73;1758646;80;21071;-70
2022/05/17 02:24:08;;;;;;;3.98;1.92;;;;;;;7.86;56.29;100227.91;1782582;80;20953;-72
2022/05/17 02:26:36;;;;;;;4.87;2.40;;;;;;;7.84;56.33;100223.72;1774995;80;21055;-69
2022/05/17 02:29:04;;;;;;;6.00;1.82;;;;;;;7.82;56.33;100219.88;1785748;80;21698;-70
2022/05/17 02:31:31;;;;;;;9.13;2.10;;;;;;;7.83;56.31;100217.62;1783103;80;21023;-69
2022/05/17 02:33:58;;;;;;;5.95;1.90;;;;;;;7.81;56.33;100214.23;1772545;79;21024;-71
2022/05/17 02:36:25;;;;;;;4.22;1.95;;;;;;;7.80;56.31;100212.55;1788033;79;20985;-70
2022/05/17 02:38:53;;;;;;;3.72;1.92;;;;;;;7.80;56.37;100213.03;1798455;79;21566;-70
2022/05/17 02:41:20;;;;;;;4.35;2.20;;;;;;;7.80;56.38;100209.92;1798812;79;21870;-70
2022/05/17 02:43:47;;;;;;;6.58;2.20;;;;;;;7.81;56.38;100208.13;1786603;79;20983;-71
2022/05/17 02:46:14;;;;;;;5.00;2.42;;;;;;;7.82;56.42;100209.37;1791948;79;21368;-70
2022/05/17 02:48:42;;;;;;;4.60;2.58;;;;;;;7.78;56.62;100203.94;1796368;77;21431;-71
2022/05/17 02:51:11;;;;;;;8.45;3.40;;;;;;;7.77;56.88;100202.27;1808305;79;20927;-71
2022/05/17 02:53:38;;;;;;;6.85;3.27;;;;;;;7.73;56.98;100205.59;1792855;78;22577;-71
2022/05/17 02:56:08;;;;;;;6.28;3.92;;;;;;;7.75;56.95;100202.85;1802147;79;20942;-71
2022/05/17 02:58:35;;;;;;;8.25;5.00;;;;;;;7.76;56.93;100197.95;1805638;79;21054;-71
2022/05/17 03:01:02;;;;;;;11.75;5.90;;;;;;;7.80;56.91;100201.20;1792801;79;21072;-72
2022/05/17 03:03:30;;;;;;;11.75;5.05;;;;;;;7.83;56.93;100197.06;1792874;79;21048;-78
2022/05/17 03:05:57;;;;;;;9.60;3.95;;;;;;;7.87;57.16;100202.45;1791409;78;21908;-70
2022/05/17 03:08:26;;;;;;;9.40;4.10;;;;;;;7.89;57.14;100198.76;1793611;78;21001;-70
2022/05/17 03:10:55;;;;;;;5.83;2.95;;;;;;;7.96;56.86;100200.48;1793621;79;20994;-70
2022/05/17 03:13:23;;;;;;;5.58;2.55;;;;;;;8.03;56.65;100204.37;1799351;79;21019;-70
2022/05/17 03:15:51;;;;;;;4.70;2.40;;;;;;;8.08;56.33;100209.28;1799785;77;20989;-71
2022/05/17 03:18:18;;;;;;;7.47;2.75;;;;;;;8.12;56.15;100208.97;1790992;78;22539;-71
2022/05/17 03:20:47;;;;;;;5.58;2.83;;;;;;;8.18;56.05;100209.83;1803602;78;21005;-70
2022/05/17 03:23:14;;;;;;;6.12;2.60;;;;;;;8.24;55.91;100208.08;1787042;79;21056;-71
2022/05/17 03:25:41;;;;;;;6.00;2.70;;;;;;;8.31;55.88;100209.80;1789168;79;21060;-72
2022/05/17 03:28:11;;;;;;;4.97;2.52;;;;;;;8.36;55.84;100205.06;1791821;79;21297;-70
2022/05/17 03:30:39;;;;;;;3.90;2.37;;;;;;;8.42;55.69;100208.57;1797347;79;21942;-71
2022/05/17 03:33:07;;;;;;;5.62;2.42;;;;;;;8.48;55.50;100204.16;1780378;79;20936;-71
2022/05/17 03:35:36;;;;;;;7.72;2.37;;;;;;;8.54;55.40;100203.72;1784112;79;21022;-70
2022/05/17 03:38:05;;;;;;;6.42;2.08;;;;;;;8.61;55.17;100210.70;1791358;79;20975;-70
2022/05/17 03:40:32;;;;;;;5.37;2.40;;;;;;;8.67;55.12;100214.65;1810305;78;21049;-70
2022/05/17 03:42:59;;;;;;;6.17;2.20;;;;;;;8.72;55.10;100211.21;1792022;78;21921;-70
2022/05/17 03:45:26;;;;;;;5.35;2.10;;;;;;;8.80;55.02;100213.64;1795410;77;20915;-69
2022/05/17 03:47:54;;;;;;;3.83;2.10;;;;;;;8.88;54.80;100209.13;1807315;77;21109;-71
2022/05/17 03:50:21;;;;;;;4.22;1.80;;;;;;;8.96;54.68;100210.68;1789075;79;21028;-72
2022/05/17 03:52:48;;;;;;;5.12;1.80;;;;;;;9.03;54.60;100209.27;1791972;79;21040;-71
2022/05/17 03:55:16;;;;;;;5.05;1.50;;;;;;;9.11;54.40;100210.02;1790493;79;21968;-71
2022/05/17 03:57:43;;;;;;;7.92;1.92;;;;;;;9.17;53.95;100213.52;1792269;79;21046;-74
2022/05/17 04:00:13;;;;;;;4.20;1.60;;;;;;;9.23;53.74;100209.55;1791739;78;21026;-74
2022/05/17 04:02:40;;;;;;;4.42;1.90;;;;;;;9.27;53.54;100208.38;1804244;79;21522;-71
2022/05/17 04:05:09;;;;;;;4.78;2.00;;;;;;;9.32;53.48;100205.73;1776139;80;20918;-70
2022/05/17 04:07:38;;;;;;;3.10;1.80;;;;;;;9.36;53.54;100205.88;1746328;79;22605;-71
2022/05/17 04:10:12;;;;;;;3.60;1.67;;;;;;;9.42;53.46;100209.34;1796700;79;20976;-71
2022/05/17 04:12:39;;;;;;;4.77;1.80;;;;;;;9.49;53.40;100209.72;1803035;77;20945;-71
2022/05/17 04:15:09;;;;;;;5.12;1.85;;;;;;;9.56;53.43;100210.09;1782267;78;21086;-70
2022/05/17 04:17:36;;;;;;;4.75;2.40;;;;;;;9.59;53.70;100208.04;1793935;80;21003;-71
2022/05/17 04:20:05;;;;;;;3.65;1.95;;;;;;;9.64;54.03;100208.50;1774075;80;21837;-71
2022/05/17 04:22:32;;;;;;;3.67;2.00;;;;;;;9.69;54.12;100210.80;1768523;80;21005;-70
2022/05/17 04:25:00;;;;;;;4.25;2.00;;;;;;;9.75;54.37;100200.62;1790722;80;21019;-71
2022/05/17 04:27:28;;;;;;;4.75;2.55;;;;;;;9.84;54.31;100206.10;1770418;79;20981;-70
2022/05/17 04:29:55;;;;;;;4.67;2.62;;;;;;;9.93;54.35;100205.38;1797331;79;20940;-73
2022/05/17 04:32:22;;;;;;;5.30;2.20;;;;;;;10.04;54.42;100202.75;1803358;79;21805;-70
2022/05/17 04:34:49;;;;;;;6.65;3.12;;;;;;;10.18;54.55;100208.23;1775927;79;21075;-72
2022/05/17 04:37:16;;;;;;;8.48;3.25;;;;;;;10.32;54.54;100203.52;1777715;79;21423;-70
2022/05/17 04:39:43;;;;;;;5.87;2.60;;;;;;;10.46;54.47;100204.23;1774661;78;21430;-80
2022/05/17 04:42:10;;;;;;;6.55;2.10;;;;;;;10.58;54.27;100201.89;1779775;80;21101;-72
2022/05/17 04:44:39;;;;;;;5.28;1.60;;;;;;;10.73;54.13;100199.81;1785915;79;21011;-71
2022/05/17 04:47:09;;;;;;;5.08;1.50;;;;;;;10.89;53.57;100199.70;1755442;81;21079;-69
2022/05/17 04:49:37;;;;;;;5.42;1.57;;;;;;;11.03;52.52;100199.89;1759104;81;21508;-71
2022/05/17 04:52:06;;;;;;;3.87;1.52;;;;;;;11.26;50.57;100195.29;1761654;81;21107;-73
2022/05/17 04:54:33;;;;;;;7.47;1.82;;;;;;;11.53;49.39;100196.55;1758565;81;21008;-70
2022/05/17 04:57:00;;;;;;;6.75;1.60;;;;;;;11.79;48.70;100195.63;1773024;80;22382;-70
2022/05/17 04:59:27;;;;;;;4.53;1.55;;;;;;;12.01;47.58;100189.66;1774238;80;21037;-70
2022/05/17 05:01:54;;;;;;;6.33;1.32;;;;;;;12.29;46.21;100193.34;1755636;81;21531;-70
2022/05/17 05:04:22;;;;;;;5.05;1.47;;;;;;;12.61;43.95;100189.09;1763980;81;21036;-73
2022/05/17 05:06:49;;;;;;;3.67;1.35;;;;;;;12.95;43.29;100179.41;1755867;80;21582;-72
2022/05/17 05:09:17;;;;;;;4.58;1.25;;;;;;;13.19;41.99;100178.95;1756571;79;21828;-72
2022/05/17 05:11:46;;;;;;;6.08;1.50;;;;;;;13.42;41.33;100182.13;1753336;81;21022;-72
2022/05/17 05:14:14;;;;;;;4.17;1.42;;;;;;;13.62;40.60;100179.73;1755150;81;21035;-71
2022/05/17 05:16:41;;;;;;;4.28;1.70;;;;;;;13.79;39.97;100176.78;1783532;78;21740;-72
2022/05/17 05:19:09;;;;;;;7.60;1.47;;;;;;;13.97;40.43;100176.83;1770178;80;21011;-71
2022/05/17 05:21:37;;;;;;;5.22;1.42;;;;;;;14.13;40.07;100171.71;1743333;80;23010;-71
2022/05/17 05:24:07;;;;;;;8.23;1.67;;;;;;;14.29;39.62;100165.25;1771865;80;21034;-71
2022/05/17 05:26:34;;;;;;;4.50;1.60;;;;;;;14.44;38.91;100164.70;1756893;79;21024;-71
2022/05/17 05:29:01;;;;;;;3.67;1.60;;;;;;;14.55;37.55;100163.18;1771815;80;21449;-71
2022/05/17 05:31:28;;;;;;;4.22;1.60;;;;;;;14.65;37.79;100165.76;1768711;80;21385;-70
2022/05/17 05:33:56;;;;;;;2.87;1.37;;;;;;;14.76;37.60;100154.38;1766724;80;21847;-72
2022/05/17 05:36:23;;;;;;;7.53;1.62;;;;;;;14.85;36.52;100152.13;1766992;80;21161;-73
2022/05/17 05:38:51;;;;;;;7.50;1.60;;;;;;;14.95;36.98;100145.39;1771822;79;21414;-72
2022/05/17 05:41:18;;;;;;;5.95;1.20;;;;;;;15.04;36.70;100150.27;1784962;79;21068;-72
2022/05/17 05:43:45;;;;;;;3.33;1.30;;;;;;;15.15;35.94;100143.36;1779226;79;21340;-72
2022/05/17 05:46:13;;;;;;;3.42;1.30;;;;;;;15.29;34.55;100152.11;1790166;79;21915;-71
2022/05/17 05:48:41;;;;;;;4.12;1.12;;;;;;;15.38;34.82;100149.00;1798520;77;20980;-74
2022/05/17 05:51:08;;;;;;;1.72;0.93;;;;;;;15.50;33.87;100149.05;1792238;79;21002;-74
2022/05/17 05:53:37;;;;;;;3.10;1.20;;;;;;;15.58;34.42;100157.08;1778991;79;21067;-73
2022/05/17 05:56:05;;;;;;;3.87;1.30;;;;;;;15.66;34.30;100149.67;1791093;78;21033;-72
2022/05/17 05:58:36;;;;;;;3.42;0.98;;;;;;;15.73;34.03;100157.36;1785082;79;21913;-71
2022/05/17 06:01:04;;;;;;;1.95;1.00;;;;;;;15.77;33.94;100136.56;1787675;79;21770;-72
2022/05/17 06:03:32;;;;;;;5.55;1.20;;;;;;;15.83;33.50;100139.42;1763766;80;21055;-74
2022/05/17 06:06:00;;;;;;;1.55;0.85;;;;;;;15.89;33.64;100136.09;1775098;80;21821;-71
2022/05/17 06:08:28;;;;;;;2.42;0.85;;;;;;;15.97;33.71;100129.47;1789331;79;21028;-73
2022/05/17 06:10:56;;;;;;;10.00;0.93;;;;;;;16.08;33.07;100140.31;1784191;80;22967;-74
2022/05/17 06:13:23;;;;;;;2.45;0.90;;;;;;;16.17;32.96;100127.84;1756658;80;21000;-74
2022/05/17 06:15:51;;;;;;;3.37;1.07;;;;;;;16.21;32.73;100135.83;1778762;80;21011;-70
2022/05/17 06:18:19;;;;;;;2.33;0.90;;;;;;;16.26;33.03;100138.35;1780147;79;21024;-71
2022/05/17 06:20:51;;;;;;;1.25;0.70;;;;;;;16.30;33.16;100131.69;1784106;78;21526;-73
2022/05/17 06:23:18;;;;;;;3.67;1.07;;;;;;;16.37;33.04;100127.04;1789900;80;21931;-73
2022/05/17 06:25:46;;;;;;;1.95;0.90;;;;;;;16.41;33.49;100127.06;1774311;80;21016;-71
2022/05/17 06:28:13;;;;;;;3.58;0.88;;;;;;;16.49;33.36;100129.20;1778097;78;21027;-73
2022/05/17 06:30:42;;;;;;;1.12;0.70;;;;;;;16.56;33.12;100113.38;1772432;78;21532;-74
2022/05/17 06:33:12;;;;;;;1.95;0.80;;;;;;;16.53;32.71;100127.06;1781098;78;21027;-78
2022/05/17 06:35:41;;;;;;;1.52;0.70;;;;;;;16.57;32.78;100131.87;1775615;78;22000;-78
2022/05/17 06:38:10;;;;;;;1.62;0.80;;;;;;;16.64;32.60;100128.56;1792487;78;21074;-74
2022/05/17 06:40:38;;;;;;;2.47;0.80;;;;;;;16.72;32.87;100121.92;1762744;80;21028;-79
2022/05/17 06:43:05;;;;;;;2.12;0.80;;;;;;;16.81;33.04;100123.59;1758467;80;21252;-78
2022/05/17 06:45:33;;;;;;;3.17;0.65;;;;;;;16.95;32.15;100126.06;1770174;80;21016;-73
2022/05/17 06:48:02;;;;;;;2.00;0.80;;;;;;;17.07;32.30;100122.03;1772190;79;22899;-75
2022/05/17 06:50:29;;;;;;;4.00;0.88;;;;;;;17.21;31.76;100121.34;1774198;80;21086;-74
2022/05/17 06:52:57;;;;;;;1.12;0.65;;;;;;;17.31;31.36;100118.48;1770485;80;21036;-76
2022/05/17 06:55:24;;;;;;;2.22;0.70;;;;;;;17.38;31.24;100117.63;1776152;79;21415;-78
2022/05/17 06:57:51;;;;;;;1.55;0.80;;;;;;;17.45;31.03;100120.42;1762861;80;21052;-71
2022/05/17 07:00:19;;;;;;;3.30;0.88;;;;;;;17.48;31.12;100118.77;1770429;80;21805;-80
2022/05/17 07:02:47;;;;;;;2.90;0.80;;;;;;;17.52;31.56;100121.91;1775314;80;21094;-75
2022/05/17 07:05:14;;;;;;;4.95;0.80;;;;;;;17.63;31.25;100127.70;1763526;80;21090;-72
2022/05/17 07:07:41;;;;;;;3.40;0.90;;;;;;;17.72;30.68;100129.36;1775868;80;21344;-75
2022/05/17 07:13:08;;;;;;;1.77;0.90;;;;;;;17.59;30.55;100119.72;1773225;80;21838;-73
2022/05/17 07:15:41;;;;;;;1.47;0.82;;;;;;;17.52;31.39;100108.56;1763682;80;21114;-74
2022/05/17 07:18:08;;;;;;;1.27;0.63;;;;;;;17.59;30.80;100112.22;1767794;80;21078;-71
2022/05/17 07:20:35;;;;;;;1.30;0.70;;;;;;;17.63;31.31;100110.84;1759484;80;21090;-71
2022/05/17 07:23:03;;;;;;;1.95;0.70;;;;;;;17.70;30.68;100108.68;1756611;80;21035;-72
2022/05/17 07:25:32;;;;;;;5.05;0.78;;;;;;;17.72;30.62;100095.97;1775591;80;22295;-70
2022/05/17 07:27:59;;;;;;;9.48;4.30;;;;;;;17.67;30.36;100103.66;1788183;79;21007;-70
2022/05/17 07:30:27;;;;;;;3.67;2.02;;;;;;;17.63;30.45;100091.64;1772277;80;21426;-71
2022/05/17 07:32:55;;;;;;;5.12;1.90;;;;;;;17.67;31.21;100092.98;1768444;80;21055;-70
2022/05/17 07:35:22;;;;;;;6.55;0.90;;;;;;;17.79;31.12;100089.95;1759230;80;21098;-70
2022/05/17 07:37:49;;;;;;;2.12;0.70;;;;;;;17.83;29.74;100087.23;1785961;80;21900;-71
2022/05/17 07:40:17;;;;;;;8.28;1.12;;;;;;;17.86;30.15;100077.56;1767976;78;20980;-71
2022/05/17 07:42:44;;;;;;;2.35;0.80;;;;;;;18.01;30.21;100073.10;1782253;80;21553;-72
2022/05/17 07:45:12;;;;;;;3.92;0.68;;;;;;;18.10;29.53;100078.72;1794456;80;21094;-71
2022/05/17 07:47:40;;;;;;;5.20;0.80;;;;;;;18.16;29.35;100087.88;1774798;78;20951;-70
2022/05/17 07:50:09;;;;;;;1.90;0.60;;;;;;;18.17;27.91;100063.64;1765748;80;21833;-71
2022/05/17 07:52:36;;;;;;;2.65;0.70;;;;;;;18.21;28.37;100071.63;1763311;80;21027;-76
2022/05/17 07:55:05;;;;;;;3.22;0.60;;;;;;;18.34;28.82;100050.16;1770938;78;21495;-73
2022/05/17 07:57:33;;;;;;;1.52;0.57;;;;;;;18.57;29.06;100042.92;1764213;80;21035;-75
2022/05/17 08:00:00;;;;;;;3.10;0.60;;;;;;;18.76;28.46;100042.43;1765522;80;21047;-71
2022/05/17 08:02:27;;;;;;;1.85;0.68;;;;;;;18.80;28.59;100043.72;1795033;80;21793;-71
2022/05/17 08:04:54;;;;;;;1.00;0.70;;;;;;;18.78;28.75;100047.08;1770033;80;21550;-71
2022/05/17 08:07:21;;;;;;;2.70;0.60;;;;;;;18.74;27.93;100038.28;1786834;78;21445;-76
2022/05/17 08:09:50;;;;;;;2.65;0.65;;;;;;;18.70;27.65;100035.62;1798500;80;21083;-76
2022/05/17 08:12:17;;;;;;;2.95;0.70;;;;;;;18.67;27.72;100027.98;1797784;80;21376;-76
2022/05/17 08:14:45;;;;;;;1.82;0.70;;;;;;;18.63;28.14;100036.02;1764101;81;21749;-76
2022/05/17 08:17:12;;;;;;;3.02;0.90;;;;;;;18.58;28.44;100035.22;1777895;80;21046;-78
2022/05/17 08:19:39;;;;;;;3.80;0.70;;;;;;;18.45;28.36;100045.72;1779511;80;21017;-80
2022/05/17 08:22:08;;;;;;;2.35;0.62;;;;;;;18.33;29.21;100034.59;1777453;80;21036;-78
2022/05/17 08:27:31;;;;;;;2.12;0.60;;;;;;;18.60;29.46;100030.00;1777550;78;22495;-81
2022/05/17 08:30:03;;;;;;;3.50;0.62;;;;;;;18.89;28.13;100023.05;1770934;79;21067;-82
2022/05/17 08:35:17;;;;;;;3.40;0.70;;;;;;;18.95;27.43;100014.81;1771096;80;21043;-80
2022/05/17 08:37:44;;;;;;;3.30;1.12;;;;;;;18.89;27.39;100015.02;1766819;80;21076;-77
2022/05/17 08:40:20;;;;;;;1.12;0.50;;;;;;;18.83;27.49;100005.08;1791411;78;21917;-82
2022/05/17 08:42:58;;;;;;;1.52;0.60;;;;;;;18.81;28.38;100023.97;1796143;79;20977;-81
2022/05/17 08:46:00;;;;;;;2.80;0.70;;;;;;;18.86;27.39;100015.41;1793881;78;21507;-83
2022/05/17 08:48:28;;;;;;;2.17;0.68;;;;;;;18.83;27.79;100029.98;1759535;79;21488;-79
2022/05/17 08:50:55;;;;;;;1.72;0.85;;;;;;;18.86;28.18;100022.09;1781773;80;21079;-79
2022/05/17 08:53:22;;;;;;;1.85;0.50;;;;;;;19.01;27.60;100026.95;1776975;78;21815;-83
2022/05/17 08:55:50;;;;;;;2.62;0.65;;;;;;;19.09;26.32;100011.28;1773213;78;21051;-80
2022/05/17 08:58:23;;;;;;;2.72;0.70;;;;;;;19.14;26.90;100012.39;1781985;80;21000;-80
2022/05/17 09:01:06;;;;;;;1.65;0.50;;;;;;;19.34;26.34;100031.39;1788728;80;21027;-79
2022/05/17 09:03:59;;;;;;;1.98;0.60;;;;;;;19.47;26.13;99999.09;1782623;80;21043;-80
2022/05/17 09:06:48;;;;;;;3.17;0.75;;;;;;;19.64;26.63;100006.74;1774180;80;21856;-79
2022/05/17 09:09:36;;;;;;;6.70;0.80;;;;;;;19.84;26.49;100009.63;1737672;80;21044;-79
2022/05/17 09:12:15;;;;;;;1.30;0.70;;;;;;;19.90;26.71;100018.77;1753643;78;21102;-79
2022/05/17 09:14:45;;;;;;;0.68;0.50;;;;;;;19.93;26.76;100004.98;1767722;79;21036;-78
2022/05/17 09:17:15;;;;;;;5.12;0.62;;;;;;;20.00;27.23;99996.50;1779939;79;21297;-79
2022/05/17 09:19:43;;;;;;;3.98;0.80;;;;;;;20.12;26.74;99993.61;1781946;78;21859;-79
2022/05/17 09:22:10;;;;;;;3.22;0.70;;;;;;;20.22;26.12;99990.59;1776737;78;21110;-77
2022/05/17 09:24:41;;;;;;;4.37;0.68;;;;;;;20.24;26.42;99989.38;1773176;80;21016;-78
2022/05/17 09:27:36;;;;;;;3.25;0.50;;;;;;;20.35;25.78;99992.03;1777820;78;21040;-78
2022/05/17 09:30:24;;;;;;;3.58;0.60;;;;;;;20.33;24.86;99990.06;1758874;79;21078;-76
2022/05/17 09:33:07;;;;;;;1.52;0.57;;;;;;;20.10;25.22;99990.30;1782967;80;22555;-82
2022/05/17 09:35:57;;;;;;;0.98;0.57;;;;;;;19.83;25.72;99981.17;1783130;78;21090;-80
2022/05/17 09:38:27;;;;;;;2.02;0.85;;;;;;;19.72;26.41;99987.05;1769023;78;21039;-81
2022/05/17 09:40:55;;;;;;;2.27;0.55;;;;;;;19.68;26.71;99983.89;1775112;78;21078;-80
2022/05/17 09:43:37;;;;;;;1.75;0.62;;;;;;;19.63;26.38;99974.78;1725644;80;21046;-76
2022/05/17 09:46:32;;;;;;;2.67;0.55;;;;;;;19.73;26.90;99967.27;1782150;78;21831;-79
2022/05/17 09:54:46;;;;;;;4.33;0.70;;;;;;;19.91;26.57;99962.29;1755739;80;21181;-76
2022/05/17 09:57:26;;;;;;;1.15;0.50;;;;;;;20.06;26.76;99955.49;1756152;80;21023;-84
2022/05/17 09:59:56;;;;;;;1.50;0.60;;;;;;;20.13;25.91;99962.27;1780294;78;22926;-78
2022/05/17 10:02:41;;;;;;;4.40;0.50;;;;;;;20.01;25.55;99962.79;1749144;78;21004;-84
2022/05/17 10:05:43;;;;;;;0.98;0.45;;;;;;;19.89;25.68;99962.17;1776679;78;21031;-83
2022/05/17 10:08:23;;;;;;;1.40;0.57;;;;;;;19.88;25.74;99965.36;1786551;80;21091;-79
2022/05/17 10:11:13;;;;;;;1.20;0.50;;;;;;;19.96;25.54;99957.67;1780561;78;21045;-80
2022/05/17 10:14:11;;;;;;;0.95;0.40;;;;;;;20.10;26.16;99953.27;1783748;80;21811;-81
2022/05/17 10:17:00;;;;;;;1.87;0.60;;;;;;;20.28;25.55;99966.52;1775306;80;20897;-78
2022/05/17 10:19:49;;;;;;;0.85;0.50;;;;;;;20.09;25.15;99954.30;1768370;79;21064;-78
2022/05/17 10:22:43;;;;;;;1.85;0.50;;;;;;;19.79;25.57;99957.13;1776431;79;21032;-79
2022/05/17 10:25:31;;;;;;;0.88;0.60;;;;;;;19.57;26.01;99955.44;1782650;79;21020;-78
2022/05/17 10:28:24;;;;;;;3.05;0.60;;;;;;;19.53;27.37;99949.61;1764353;80;22240;-80
2022/05/17 10:31:33;;;;;;;3.62;0.55;;;;;;;19.80;26.46;99950.75;1768425;80;21068;-77
2022/05/17 10:34:46;;;;;;;2.92;0.55;;;;;;;19.99;26.32;99946.08;1761491;80;21103;-79
2022/05/17 10:37:21;;;;;;;0.80;0.50;;;;;;;20.05;26.32;99942.29;1791076;79;21081;-81
2022/05/17 10:39:59;;;;;;;0.50;0.40;;;;;;;20.11;25.93;99930.28;1801742;78;21064;-78
2022/05/17 10:42:28;;;;;;;2.05;0.60;;;;;;;20.23;25.73;99948.00;1777310;80;21929;-79
2022/05/17 10:44:56;;;;;;;0.78;0.50;;;;;;;20.32;26.08;99931.26;1778487;80;21012;-81
2022/05/17 10:47:50;;;;;;;0.78;0.60;;;;;;;20.52;25.64;99934.93;1785851;79;21477;-80
2022/05/17 10:50:40;;;;;;;1.37;0.47;;;;;;;20.75;25.11;99935.98;1779730;78;21032;-79
2022/05/17 10:53:27;;;;;;;0.93;0.40;;;;;;;20.85;25.17;99925.22;1708994;79;21119;-80
2022/05/17 10:56:12;;;;;;;2.33;0.50;;;;;;;20.78;24.04;99920.33;1777044;79;22645;-81
2022/05/17 10:59:04;;;;;;;0.55;0.40;;;;;;;20.84;24.08;99909.29;1769323;80;21026;-80
2022/05/17 11:01:53;;;;;;;3.47;0.50;;;;;;;21.10;24.54;99905.38;1747225;80;21443;-79
2022/05/17 11:04:59;;;;;;;5.47;0.70;;;;;;;21.34;24.70;99901.36;1806809;79;21016;-79
2022/05/17 11:07:47;;;;;;;1.87;0.53;;;;;;;21.61;24.30;99900.04;1792485;79;21083;-78
2022/05/17 11:10:47;;;;;;;2.50;0.57;;;;;;;21.84;23.88;99891.59;1773307;79;21957;-77
2022/05/17 11:13:32;;;;;;;0.95;0.53;;;;;;;21.76;23.59;99889.11;1806239;79;21087;-78
2022/05/17 11:16:08;;;;;;;1.22;0.50;;;;;;;21.55;23.90;99890.13;1759520;79;21059;-75
2022/05/17 11:18:41;;;;;;;1.27;0.60;;;;;;;21.34;23.72;99893.30;1764364;78;21035;-75
2022/05/17 11:21:18;;;;;;;2.30;0.50;;;;;;;21.06;24.00;99889.88;1773559;78;21043;-75
2022/05/17 11:24:00;;;;;;;0.88;0.33;;;;;;;20.99;24.25;99893.05;1787605;77;21786;-79
2022/05/17 11:26:59;;;;;;;4.00;0.50;;;;;;;21.07;23.74;99879.45;1805652;79;21500;-79
2022/05/17 11:30:00;;;;;;;1.52;0.80;;;;;;;21.00;23.74;99870.02;1805662;78;20949;-75
2022/05/17 11:32:36;;;;;;;2.65;0.60;;;;;;;20.93;23.96;99879.08;1794656;79;21207;-76
2022/05/17 11:35:08;;;;;;;1.10;0.42;;;;;;;21.02;24.26;99867.13;1815106;78;21008;-76
2022/05/17 11:37:41;;;;;;;3.67;0.60;;;;;;;21.31;24.19;99872.71;1754135;80;22582;-76
2022/05/17 11:40:10;;;;;;;2.65;0.42;;;;;;;21.55;23.37;99855.20;1796345;78;27399;-77
2022/05/17 11:45:50;;;;;;;2.33;0.50;;;;;;;21.83;23.52;99843.72;1788716;80;20954;-75
2022/05/17 11:48:21;;;;;;;2.15;0.40;;;;;;;22.26;23.80;99853.51;1764492;80;21341;-76
2022/05/17 11:51:01;;;;;;;1.92;0.47;;;;;;;22.54;23.08;99842.98;1756575;81;22120;-76
2022/05/17 11:53:33;;;;;;;1.77;0.60;;;;;;;22.49;22.27;99857.61;1760357;80;21095;-75
2022/05/17 11:56:32;;;;;;;4.65;0.68;;;;;;;22.32;23.10;99841.61;1760636;80;20996;-75
2022/05/17 11:59:13;;;;;;;0.65;0.45;;;;;;;22.32;23.35;99832.20;1757972;81;21011;-75
2022/05/17 12:01:43;;;;;;;5.00;0.70;;;;;;;22.38;23.42;99829.47;1758243;80;21518;-76
2022/05/17 12:04:37;;;;;;;4.33;0.85;;;;;;;22.40;22.93;99836.00;1767837;80;22455;-76
2022/05/17 12:07:25;;;;;;;5.75;0.80;;;;;;;22.57;22.12;99843.89;1789167;79;20992;-76
2022/05/17 12:10:13;;;;;;;4.35;0.80;;;;;;;22.58;22.72;99818.63;1789341;80;20973;-75
2022/05/17 12:12:59;;;;;;;2.08;0.50;;;;;;;22.72;23.24;99804.09;1792603;79;21005;-75